TimeEST,TemperatureF,Dew PointF,Humidity,Sea Level PressureIn,VisibilityMPH,Wind Direction,Wind SpeedMPH,Gust SpeedMPH,PrecipitationIn,Events,Conditions,WindDirDegrees,DateUTC
12:52 AM,24.8,24.8,100,-9999,0.0,WNW,76.0,81.7,N/A,Fog,Light Freezing Fog,290,2012-12-09 05:52:00
1:52 AM,23.0,23.0,100,-9999,0.0,WNW,76.0,86.3,N/A,Fog,Light Freezing Fog,290,2012-12-09 06:52:00
2:55 AM,21.2,21.2,100,-9999,0.0,WNW,69.0,79.4,N/A,Fog,Light Freezing Fog,300,2012-12-09 07:55:00
3:56 AM,17.6,17.6,100,-9999,0.0,WNW,64.4,74.8,N/A,Fog-Snow,Light Snow Showers,300,2012-12-09 08:56:00
4:56 AM,15.8,15.8,100,-9999,0.0,WNW,66.7,73.6,N/A,Fog-Snow,Light Snow Showers,300,2012-12-09 09:56:00
5:50 AM,14.0,14.0,100,-9999,0.0,NW,66.7,70.2,N/A,Fog-Snow,Light Snow Showers,310,2012-12-09 10:50:00
6:54 AM,14.0,14.0,100,-9999,0.0,WNW,69.0,-,N/A,Fog,Light Freezing Fog,300,2012-12-09 11:54:00
7:52 AM,12.2,12.2,100,-9999,0.0,WNW,57.5,-,N/A,Fog,Light Freezing Fog,300,2012-12-09 12:52:00
8:51 AM,12.2,12.2,100,-9999,0.1,NW,59.8,67.9,N/A,Fog,Light Freezing Fog,310,2012-12-09 13:51:00
9:49 AM,14.0,3.2,62,-9999,80.0,NW,56.4,-,N/A,,Scattered Clouds,310,2012-12-09 14:49:00
10:48 AM,15.8,-11.2,30,-9999,100.0,NW,49.5,-,N/A,,Mostly Cloudy,310,2012-12-09 15:48:00
11:53 AM,19.4,-2.2,39,-9999,100.0,NW,42.6,51.8,N/A,,Mostly Cloudy,310,2012-12-09 16:53:00
12:53 PM,19.4,-2.2,39,-9999,100.0,NW,36.8,48.3,N/A,,Mostly Cloudy,310,2012-12-09 17:53:00
1:54 PM,21.2,-11.2,24,-9999,100.0,NW,38.0,44.9,N/A,,Mostly Cloudy,310,2012-12-09 18:54:00
2:56 PM,21.2,-16.6,18,-9999,100.0,NW,23.0,-,N/A,,Mostly Cloudy,310,2012-12-09 19:56:00
3:50 PM,21.2,-14.8,20,-9999,100.0,NW,17.3,-,N/A,,Mostly Cloudy,310,2012-12-09 20:50:00
4:51 PM,23.0,-23.8,12,-9999,100.0,NW,2.3,-,N/A,,Mostly Cloudy,310,2012-12-09 21:51:00
5:59 PM,23.0,-7.6,26,-9999,100.0,SW,8.1,-,N/A,,Overcast,230,2012-12-09 22:59:00
6:53 PM,23.0,-9.4,24,-9999,100.0,South,12.7,-,N/A,,Overcast,180,2012-12-09 23:53:00
7:53 PM,21.2,-9.4,26,-9999,120.0,SSE,24.2,-,N/A,,Overcast,150,2012-12-10 00:53:00
8:55 PM,21.2,-11.2,24,-9999,130.0,SSE,25.3,31.1,N/A,,Overcast,150,2012-12-10 01:55:00
9:56 PM,21.2,-16.6,18,-9999,130.0,SSE,41.4,47.2,N/A,,Overcast,150,2012-12-10 02:56:00
10:57 PM,17.6,-13.0,25,-9999,130.0,South,47.2,52.9,N/A,,Overcast,170,2012-12-10 03:57:00
11:54 PM,17.6,-5.8,35,-9999,80.0,South,50.6,56.4,N/A,,Overcast,170,2012-12-10 04:54:00